Terminal Aerodrome Forecast
Issued by NWS Wakefield, VA

Home | Current Version | Previous Version | Text Only | Print | Product List | Glossary On
Versions: 1 2 3 4 5 6 7 8 9 10 11 12 13 14
000
FTUS41 KAKQ 250500
TAFECG
TAF
KECG 250539Z 2506/2606 14004KT P6SM BKN250
     FM251400 16012KT P6SM BKN150
     FM251700 17015G25KT P6SM BKN050 OVC100
     FM252100 18014KT 5SM SHRA BKN040
     FM260300 22008KT P6SM BKN060=

USA.gov is the U.S. government's official web portal to all federal, state and local government web resources and services.